BGA12G LFBO-EDHI
Flight info
| Callsign | BGA12G |
|---|---|
| Flight time | 2h 11m |
| Altitude | 28000 |
| Route | FISTO7A/14R FISTO DCT PERIG DCT ADABI DCT BOKNO UN858 VANAD UN874 BAMES UT191 PODEM UN873 BAZOS DCT BELDI/N0415F290 DCT VICOT DCT PABCO M105 RIBSO |
| Aircraft | A337/H-SDE3GHIJ2J3J5M1RVWXY/LB2D1 |
Departure
| Time | 2026-04-23 16:22 |
|---|---|
| Airport | Toulouse-Blagnac Airport (LFBO) |
Arrival
| Time | 2026-04-23 18:33 |
|---|---|
| Airport | Hamburg-Finkenwerder Airport (EDHI) |
| Time | Latitude | Longitude | Altitude | Speed | Heading |
|---|---|---|---|---|---|
| 2026-04-23 15:44 | 43.62520 | 1.35747 | 498 ft | 0 kts | 323° |
| 2026-04-23 16:05 | 43.62517 | 1.35749 | 498 ft | 2 kts | 323° |
| 2026-04-23 16:05 | 43.62503 | 1.35764 | 487 ft | 3 kts | 323° |
| 2026-04-23 16:05 | 43.62489 | 1.35778 | 487 ft | 3 kts | 329° |
| 2026-04-23 16:06 | 43.62472 | 1.35788 | 487 ft | 3 kts | 0° |
| 2026-04-23 16:06 | 43.62454 | 1.35782 | 487 ft | 3 kts | 36° |
| 2026-04-23 16:06 | 43.62439 | 1.35764 | 487 ft | 3 kts | 51° |
| 2026-04-23 16:06 | 43.62431 | 1.35750 | 487 ft | 1 kts | 53° |
| 2026-04-23 16:07 | 43.62430 | 1.35746 | 487 ft | 0 kts | 53° |
| 2026-04-23 16:08 | 43.62432 | 1.35751 | 498 ft | 4 kts | 53° |
| 2026-04-23 16:09 | 43.62454 | 1.35793 | 489 ft | 6 kts | 53° |
| 2026-04-23 16:09 | 43.62480 | 1.35840 | 487 ft | 7 kts | 53° |
| 2026-04-23 16:09 | 43.62516 | 1.35907 | 489 ft | 9 kts | 53° |
| 2026-04-23 16:09 | 43.62554 | 1.35978 | 487 ft | 9 kts | 54° |
| 2026-04-23 16:10 | 43.62592 | 1.36053 | 490 ft | 10 kts | 55° |
| 2026-04-23 16:10 | 43.62653 | 1.36092 | 489 ft | 13 kts | 355° |
| 2026-04-23 16:10 | 43.62752 | 1.36009 | 488 ft | 20 kts | 322° |
| 2026-04-23 16:10 | 43.62868 | 1.35888 | 487 ft | 21 kts | 323° |
| 2026-04-23 16:11 | 43.62983 | 1.35768 | 487 ft | 21 kts | 323° |
| 2026-04-23 16:11 | 43.63101 | 1.35646 | 489 ft | 21 kts | 323° |
| 2026-04-23 16:11 | 43.63216 | 1.35527 | 489 ft | 21 kts | 323° |
| 2026-04-23 16:11 | 43.63331 | 1.35408 | 488 ft | 21 kts | 323° |
| 2026-04-23 16:12 | 43.63446 | 1.35287 | 487 ft | 19 kts | 322° |
| 2026-04-23 16:12 | 43.63555 | 1.35173 | 487 ft | 20 kts | 323° |
| 2026-04-23 16:12 | 43.63664 | 1.35059 | 494 ft | 20 kts | 323° |
| 2026-04-23 16:12 | 43.63777 | 1.34942 | 489 ft | 20 kts | 323° |
| 2026-04-23 16:13 | 43.63887 | 1.34829 | 488 ft | 14 kts | 323° |
| 2026-04-23 16:13 | 43.63949 | 1.34805 | 487 ft | 1 kts | 15° |
| 2026-04-23 16:13 | 43.63969 | 1.34823 | 489 ft | 6 kts | 41° |
| 2026-04-23 16:14 | 43.64005 | 1.34885 | 488 ft | 10 kts | 53° |
| 2026-04-23 16:14 | 43.64027 | 1.34967 | 490 ft | 9 kts | 102° |
| 2026-04-23 16:14 | 43.63995 | 1.35026 | 491 ft | 6 kts | 139° |
| 2026-04-23 16:14 | 43.63883 | 1.35145 | 489 ft | 45 kts | 143° |
| 2026-04-23 16:15 | 43.63491 | 1.35552 | 487 ft | 90 kts | 143° |
| 2026-04-23 16:15 | 43.63162 | 1.35893 | 488 ft | 19 kts | 143° |
| 2026-04-23 16:15 | 43.63077 | 1.35898 | 493 ft | 12 kts | 220° |
| 2026-04-23 16:15 | 43.63026 | 1.35808 | 487 ft | 12 kts | 240° |
| 2026-04-23 16:16 | 43.63040 | 1.35712 | 487 ft | 11 kts | 313° |
| 2026-04-23 16:16 | 43.63057 | 1.35693 | 488 ft | 0 kts | 322° |
| 2026-04-23 16:16 | 43.63098 | 1.35648 | 489 ft | 14 kts | 322° |
| 2026-04-23 16:17 | 43.63199 | 1.35544 | 488 ft | 19 kts | 323° |
| 2026-04-23 16:17 | 43.63309 | 1.35430 | 488 ft | 20 kts | 323° |
| 2026-04-23 16:17 | 43.63418 | 1.35317 | 487 ft | 20 kts | 323° |
| 2026-04-23 16:17 | 43.63530 | 1.35200 | 487 ft | 20 kts | 322° |
| 2026-04-23 16:18 | 43.63643 | 1.35081 | 487 ft | 21 kts | 323° |
| 2026-04-23 16:18 | 43.63757 | 1.34963 | 488 ft | 20 kts | 323° |
| 2026-04-23 16:18 | 43.63859 | 1.34857 | 494 ft | 14 kts | 323° |
| 2026-04-23 16:18 | 43.63927 | 1.34794 | 488 ft | 7 kts | 337° |
| 2026-04-23 16:19 | 43.63947 | 1.34797 | 489 ft | 0 kts | 24° |
| 2026-04-23 16:20 | 43.63954 | 1.34803 | 492 ft | 5 kts | 30° |
| 2026-04-23 16:20 | 43.63985 | 1.34848 | 489 ft | 9 kts | 52° |
| 2026-04-23 16:20 | 43.64023 | 1.34925 | 488 ft | 10 kts | 70° |
| 2026-04-23 16:21 | 43.64003 | 1.35013 | 487 ft | 10 kts | 133° |
| 2026-04-23 16:21 | 43.63899 | 1.35127 | 489 ft | 40 kts | 142° |
| 2026-04-23 16:21 | 43.63527 | 1.35514 | 487 ft | 93 kts | 142° |
| 2026-04-23 16:21 | 43.62879 | 1.36189 | 489 ft | 140 kts | 142° |
| 2026-04-23 16:22 | 43.61983 | 1.37101 | 653 ft | 172 kts | 144° |
| 2026-04-23 16:22 | 43.61002 | 1.38051 | 1339 ft | 173 kts | 142° |
| 2026-04-23 16:22 | 43.60358 | 1.38698 | 1917 ft | 169 kts | 140° |
| 2026-04-23 16:22 | 43.59121 | 1.39882 | 3112 ft | 157 kts | 140° |
| 2026-04-23 16:23 | 43.58262 | 1.40848 | 3587 ft | 165 kts | 135° |
| 2026-04-23 16:23 | 43.57671 | 1.41556 | 3890 ft | 173 kts | 135° |
| 2026-04-23 16:23 | 43.56269 | 1.42957 | 4244 ft | 205 kts | 152° |
| 2026-04-23 16:23 | 43.54792 | 1.43422 | 4472 ft | 233 kts | 176° |
| 2026-04-23 16:24 | 43.53678 | 1.43225 | 4624 ft | 252 kts | 191° |
| 2026-04-23 16:24 | 43.52090 | 1.42028 | 4893 ft | 275 kts | 220° |
| 2026-04-23 16:24 | 43.51013 | 1.39822 | 5156 ft | 281 kts | 251° |
| 2026-04-23 16:24 | 43.50810 | 1.37138 | 5352 ft | 287 kts | 280° |
| 2026-04-23 16:25 | 43.51582 | 1.34656 | 5899 ft | 285 kts | 310° |
| 2026-04-23 16:25 | 43.53074 | 1.32942 | 6624 ft | 275 kts | 335° |
| 2026-04-23 16:25 | 43.54882 | 1.32275 | 7072 ft | 272 kts | 353° |
| 2026-04-23 16:25 | 43.56795 | 1.32057 | 7696 ft | 275 kts | 356° |
| 2026-04-23 16:26 | 43.58692 | 1.31898 | 8379 ft | 276 kts | 355° |
| 2026-04-23 16:26 | 43.60628 | 1.31727 | 9021 ft | 279 kts | 353° |
| 2026-04-23 16:26 | 43.62587 | 1.31539 | 9640 ft | 283 kts | 354° |
| 2026-04-23 16:26 | 43.64538 | 1.31344 | 10270 ft | 284 kts | 352° |
| 2026-04-23 16:27 | 43.66546 | 1.31135 | 10578 ft | 297 kts | 353° |
| 2026-04-23 16:27 | 43.68665 | 1.30912 | 10822 ft | 312 kts | 354° |
| 2026-04-23 16:27 | 43.70866 | 1.30684 | 11168 ft | 321 kts | 352° |
| 2026-04-23 16:27 | 43.73085 | 1.30456 | 11670 ft | 323 kts | 353° |
| 2026-04-23 16:28 | 43.75313 | 1.30224 | 12230 ft | 325 kts | 353° |
| 2026-04-23 16:28 | 43.77595 | 1.29988 | 12717 ft | 329 kts | 354° |
| 2026-04-23 16:28 | 43.79872 | 1.29749 | 13242 ft | 331 kts | 354° |
| 2026-04-23 16:28 | 43.82178 | 1.29508 | 13834 ft | 331 kts | 353° |
| 2026-04-23 16:29 | 43.84504 | 1.29261 | 14250 ft | 337 kts | 353° |
| 2026-04-23 16:29 | 43.86844 | 1.29014 | 14669 ft | 340 kts | 354° |
| 2026-04-23 16:29 | 43.89182 | 1.28770 | 15248 ft | 338 kts | 353° |
| 2026-04-23 16:29 | 43.91535 | 1.28523 | 15751 ft | 339 kts | 352° |
| 2026-04-23 16:30 | 43.93887 | 1.28275 | 16121 ft | 343 kts | 354° |
| 2026-04-23 16:30 | 43.96292 | 1.28022 | 16617 ft | 343 kts | 352° |
| 2026-04-23 16:30 | 43.98649 | 1.27774 | 17124 ft | 344 kts | 352° |
| 2026-04-23 16:30 | 44.01061 | 1.27519 | 17489 ft | 348 kts | 354° |
| 2026-04-23 16:31 | 44.03499 | 1.27261 | 17914 ft | 350 kts | 353° |
| 2026-04-23 16:31 | 44.05915 | 1.27006 | 18389 ft | 351 kts | 354° |
| 2026-04-23 16:31 | 44.08373 | 1.26746 | 18757 ft | 353 kts | 354° |
| 2026-04-23 16:31 | 44.10811 | 1.26488 | 19075 ft | 356 kts | 353° |
| 2026-04-23 16:32 | 44.13300 | 1.26224 | 19493 ft | 356 kts | 353° |
| 2026-04-23 16:32 | 44.15756 | 1.25964 | 19839 ft | 359 kts | 353° |
| 2026-04-23 16:32 | 44.18264 | 1.25698 | 20164 ft | 361 kts | 353° |
| 2026-04-23 16:32 | 44.20776 | 1.25431 | 20560 ft | 362 kts | 353° |
| 2026-04-23 16:33 | 44.23295 | 1.25162 | 20889 ft | 364 kts | 353° |
| 2026-04-23 16:33 | 44.25818 | 1.24893 | 21184 ft | 367 kts | 353° |
| 2026-04-23 16:33 | 44.28374 | 1.24621 | 21552 ft | 367 kts | 353° |
| 2026-04-23 16:33 | 44.30904 | 1.24352 | 21864 ft | 369 kts | 353° |
| 2026-04-23 16:34 | 44.33495 | 1.24075 | 22172 ft | 371 kts | 353° |
| 2026-04-23 16:34 | 44.36092 | 1.23974 | 22487 ft | 375 kts | 1° |
| 2026-04-23 16:34 | 44.38672 | 1.24480 | 22789 ft | 379 kts | 8° |
| 2026-04-23 16:34 | 44.41279 | 1.25215 | 23098 ft | 381 kts | 8° |
| 2026-04-23 16:35 | 44.43863 | 1.25958 | 23366 ft | 384 kts | 8° |
| 2026-04-23 16:35 | 44.46491 | 1.26715 | 23654 ft | 386 kts | 8° |
| 2026-04-23 16:35 | 44.49137 | 1.27478 | 23924 ft | 387 kts | 8° |
| 2026-04-23 16:35 | 44.51760 | 1.28234 | 24166 ft | 388 kts | 8° |
| 2026-04-23 16:36 | 44.54423 | 1.29003 | 24434 ft | 388 kts | 8° |
| 2026-04-23 16:36 | 44.57069 | 1.29768 | 24761 ft | 387 kts | 8° |
| 2026-04-23 16:36 | 44.59681 | 1.30523 | 25079 ft | 386 kts | 8° |
| 2026-04-23 16:36 | 44.62325 | 1.31177 | 25391 ft | 384 kts | 6° |
| 2026-04-23 16:37 | 44.64972 | 1.31748 | 25673 ft | 384 kts | 5° |
| 2026-04-23 16:37 | 44.67581 | 1.32306 | 25978 ft | 383 kts | 5° |
| 2026-04-23 16:37 | 44.70222 | 1.32871 | 26280 ft | 382 kts | 5° |
| 2026-04-23 16:37 | 44.72853 | 1.33434 | 26569 ft | 381 kts | 5° |
| 2026-04-23 16:38 | 44.75447 | 1.33989 | 26867 ft | 380 kts | 5° |
| 2026-04-23 16:38 | 44.78061 | 1.34549 | 27163 ft | 379 kts | 5° |
| 2026-04-23 16:38 | 44.80674 | 1.35104 | 27440 ft | 378 kts | 5° |
| 2026-04-23 16:38 | 44.83252 | 1.35651 | 27716 ft | 377 kts | 5° |
| 2026-04-23 16:39 | 44.85857 | 1.36217 | 27971 ft | 377 kts | 5° |
| 2026-04-23 16:39 | 44.88432 | 1.36782 | 28115 ft | 378 kts | 5° |
| 2026-04-23 16:39 | 44.93687 | 1.37935 | 28132 ft | 386 kts | 5° |
| 2026-04-23 16:40 | 44.99015 | 1.39104 | 28139 ft | 386 kts | 5° |
| 2026-04-23 16:40 | 45.04317 | 1.40268 | 28130 ft | 386 kts | 5° |
| 2026-04-23 16:41 | 45.09632 | 1.41433 | 28129 ft | 386 kts | 5° |
| 2026-04-23 16:41 | 45.14924 | 1.42595 | 28128 ft | 386 kts | 5° |
| 2026-04-23 16:42 | 45.20216 | 1.43760 | 28133 ft | 386 kts | 5° |
| 2026-04-23 16:42 | 45.25479 | 1.44920 | 28129 ft | 385 kts | 5° |
| 2026-04-23 16:43 | 45.30791 | 1.46093 | 28132 ft | 385 kts | 5° |
| 2026-04-23 16:43 | 45.36085 | 1.47264 | 28133 ft | 385 kts | 5° |
| 2026-04-23 16:44 | 45.41377 | 1.48439 | 28140 ft | 384 kts | 5° |
| 2026-04-23 16:44 | 45.46634 | 1.49607 | 28126 ft | 384 kts | 5° |
| 2026-04-23 16:45 | 45.51925 | 1.50785 | 28135 ft | 384 kts | 5° |
| 2026-04-23 16:45 | 45.57163 | 1.51953 | 28146 ft | 384 kts | 5° |
| 2026-04-23 16:46 | 45.62426 | 1.53129 | 28144 ft | 382 kts | 5° |
| 2026-04-23 16:46 | 45.67685 | 1.54306 | 28144 ft | 382 kts | 5° |
| 2026-04-23 16:47 | 45.72925 | 1.55481 | 28128 ft | 382 kts | 5° |
| 2026-04-23 16:47 | 45.78182 | 1.56663 | 28128 ft | 382 kts | 5° |
| 2026-04-23 16:48 | 45.83405 | 1.57839 | 28133 ft | 379 kts | 5° |
| 2026-04-23 16:48 | 45.88622 | 1.59018 | 28139 ft | 377 kts | 5° |
| 2026-04-23 16:49 | 45.93793 | 1.60186 | 28139 ft | 376 kts | 5° |
| 2026-04-23 16:49 | 45.98943 | 1.61350 | 28138 ft | 375 kts | 5° |
| 2026-04-23 16:50 | 46.04081 | 1.62518 | 28135 ft | 374 kts | 5° |
| 2026-04-23 16:50 | 46.09224 | 1.63687 | 28140 ft | 374 kts | 5° |
| 2026-04-23 16:51 | 46.14392 | 1.64861 | 28144 ft | 374 kts | 4° |
| 2026-04-23 16:51 | 46.19528 | 1.66033 | 28149 ft | 373 kts | 4° |
| 2026-04-23 16:52 | 46.24650 | 1.67205 | 28148 ft | 373 kts | 4° |
| 2026-04-23 16:52 | 46.29769 | 1.68377 | 28148 ft | 373 kts | 4° |
| 2026-04-23 16:53 | 46.34907 | 1.69555 | 28155 ft | 373 kts | 4° |
| 2026-04-23 16:53 | 46.39982 | 1.70722 | 28161 ft | 373 kts | 4° |
| 2026-04-23 16:54 | 46.45105 | 1.71902 | 28156 ft | 372 kts | 4° |
| 2026-04-23 16:54 | 46.50211 | 1.73080 | 28159 ft | 373 kts | 4° |
| 2026-04-23 16:55 | 46.55343 | 1.74266 | 28164 ft | 373 kts | 4° |
| 2026-04-23 16:55 | 46.60444 | 1.75448 | 28172 ft | 372 kts | 4° |
| 2026-04-23 16:56 | 46.65565 | 1.76637 | 28176 ft | 372 kts | 4° |
| 2026-04-23 16:56 | 46.70643 | 1.77817 | 28180 ft | 372 kts | 5° |
| 2026-04-23 16:57 | 46.75754 | 1.79008 | 28182 ft | 372 kts | 5° |
| 2026-04-23 16:57 | 46.80882 | 1.80205 | 28184 ft | 372 kts | 5° |
| 2026-04-23 16:58 | 46.85993 | 1.81400 | 28183 ft | 372 kts | 5° |
| 2026-04-23 16:58 | 46.91088 | 1.82594 | 28184 ft | 372 kts | 5° |
| 2026-04-23 16:59 | 46.96181 | 1.83789 | 28189 ft | 372 kts | 5° |
| 2026-04-23 16:59 | 47.01270 | 1.84986 | 28181 ft | 371 kts | 5° |
| 2026-04-23 17:00 | 47.06394 | 1.86193 | 28182 ft | 371 kts | 5° |
| 2026-04-23 17:00 | 47.11489 | 1.87396 | 28182 ft | 371 kts | 5° |
| 2026-04-23 17:01 | 47.16541 | 1.88591 | 28193 ft | 371 kts | 5° |
| 2026-04-23 17:01 | 47.21635 | 1.89798 | 28182 ft | 373 kts | 5° |
| 2026-04-23 17:02 | 47.26763 | 1.91016 | 28182 ft | 373 kts | 5° |
| 2026-04-23 17:02 | 47.31884 | 1.92236 | 28187 ft | 373 kts | 5° |
| 2026-04-23 17:03 | 47.37005 | 1.93457 | 28197 ft | 373 kts | 5° |
| 2026-04-23 17:03 | 47.42181 | 1.94692 | 28194 ft | 378 kts | 7° |
| 2026-04-23 17:04 | 47.47354 | 1.95930 | 28197 ft | 379 kts | 7° |
| 2026-04-23 17:04 | 47.52558 | 1.97179 | 28197 ft | 379 kts | 7° |
| 2026-04-23 17:05 | 47.57771 | 1.98433 | 28209 ft | 379 kts | 7° |
| 2026-04-23 17:05 | 47.63003 | 1.99692 | 28209 ft | 384 kts | 8° |
| 2026-04-23 17:06 | 47.68285 | 2.00967 | 28209 ft | 385 kts | 8° |
| 2026-04-23 17:06 | 47.73580 | 2.02248 | 28215 ft | 385 kts | 8° |
| 2026-04-23 17:07 | 47.78866 | 2.03529 | 28213 ft | 385 kts | 10° |
| 2026-04-23 17:07 | 47.84245 | 2.04834 | 28245 ft | 398 kts | 11° |
| 2026-04-23 17:08 | 47.89718 | 2.06168 | 28241 ft | 403 kts | 12° |
| 2026-04-23 17:08 | 47.95246 | 2.07513 | 28235 ft | 402 kts | 12° |
| 2026-04-23 17:09 | 48.00754 | 2.08862 | 28234 ft | 403 kts | 12° |
| 2026-04-23 17:09 | 48.06331 | 2.10232 | 28239 ft | 408 kts | 12° |
| 2026-04-23 17:10 | 48.11930 | 2.11605 | 28236 ft | 409 kts | 11° |
| 2026-04-23 17:10 | 48.17543 | 2.12985 | 28229 ft | 409 kts | 12° |
| 2026-04-23 17:11 | 48.23159 | 2.14367 | 28232 ft | 413 kts | 14° |
| 2026-04-23 17:11 | 48.28899 | 2.15792 | 28233 ft | 422 kts | 14° |
| 2026-04-23 17:12 | 48.34692 | 2.17225 | 28234 ft | 422 kts | 14° |
| 2026-04-23 17:12 | 48.40472 | 2.18657 | 28241 ft | 421 kts | 14° |
| 2026-04-23 17:13 | 48.46262 | 2.20097 | 28245 ft | 423 kts | 14° |
| 2026-04-23 17:13 | 48.52086 | 2.21551 | 28255 ft | 424 kts | 14° |
| 2026-04-23 17:14 | 48.57884 | 2.22999 | 28259 ft | 424 kts | 14° |
| 2026-04-23 17:14 | 48.63730 | 2.24464 | 28251 ft | 424 kts | 14° |
| 2026-04-23 17:15 | 48.69551 | 2.25926 | 28264 ft | 425 kts | 14° |
| 2026-04-23 17:15 | 48.75378 | 2.27393 | 28267 ft | 425 kts | 14° |
| 2026-04-23 17:16 | 48.81215 | 2.28865 | 28264 ft | 425 kts | 14° |
| 2026-04-23 17:16 | 48.87012 | 2.30332 | 28266 ft | 425 kts | 14° |
| 2026-04-23 17:17 | 48.92858 | 2.31814 | 28293 ft | 425 kts | 14° |
| 2026-04-23 17:17 | 48.98674 | 2.33292 | 28294 ft | 425 kts | 14° |
| 2026-04-23 17:18 | 49.07421 | 2.35522 | 28286 ft | 425 kts | 14° |
| 2026-04-23 17:19 | 49.13266 | 2.37016 | 28288 ft | 425 kts | 14° |
| 2026-04-23 17:19 | 49.19073 | 2.38505 | 28289 ft | 425 kts | 14° |
| 2026-04-23 17:20 | 49.24900 | 2.40001 | 28286 ft | 425 kts | 14° |
| 2026-04-23 17:21 | 49.36564 | 2.43008 | 28294 ft | 425 kts | 13° |
| 2026-04-23 17:21 | 49.45314 | 2.45273 | 28295 ft | 425 kts | 13° |
| 2026-04-23 17:22 | 49.54066 | 2.47547 | 28296 ft | 425 kts | 13° |
| 2026-04-23 17:23 | 49.62816 | 2.49829 | 28305 ft | 426 kts | 13° |
| 2026-04-23 17:24 | 49.71566 | 2.52119 | 28306 ft | 426 kts | 13° |
| 2026-04-23 17:24 | 49.79355 | 2.54164 | 28318 ft | 426 kts | 13° |
| 2026-04-23 17:25 | 49.88089 | 2.56466 | 28319 ft | 426 kts | 13° |
| 2026-04-23 17:26 | 50.00033 | 2.62515 | 28322 ft | 415 kts | 34° |
| 2026-04-23 17:27 | 50.06657 | 2.68608 | 28318 ft | 414 kts | 36° |
| 2026-04-23 17:27 | 50.11566 | 2.73255 | 28318 ft | 414 kts | 36° |
| 2026-04-23 17:28 | 50.16474 | 2.77870 | 28325 ft | 413 kts | 36° |
| 2026-04-23 17:28 | 50.21431 | 2.82511 | 28336 ft | 413 kts | 36° |
| 2026-04-23 17:29 | 50.26366 | 2.87135 | 28338 ft | 413 kts | 36° |
| 2026-04-23 17:30 | 50.33761 | 2.94086 | 28342 ft | 413 kts | 36° |
| 2026-04-23 17:30 | 50.41119 | 3.01030 | 28344 ft | 414 kts | 36° |
| 2026-04-23 17:31 | 50.46045 | 3.05694 | 28346 ft | 414 kts | 36° |
| 2026-04-23 17:31 | 50.50961 | 3.10358 | 28347 ft | 414 kts | 36° |
| 2026-04-23 17:32 | 50.55891 | 3.15049 | 28347 ft | 414 kts | 36° |
| 2026-04-23 17:32 | 50.60810 | 3.19740 | 28332 ft | 414 kts | 36° |
| 2026-04-23 17:33 | 50.65756 | 3.24469 | 28352 ft | 415 kts | 36° |
| 2026-04-23 17:33 | 50.70662 | 3.29171 | 28352 ft | 414 kts | 36° |
| 2026-04-23 17:34 | 50.75575 | 3.33890 | 28357 ft | 413 kts | 36° |
| 2026-04-23 17:35 | 50.82919 | 3.40969 | 28353 ft | 413 kts | 35° |
| 2026-04-23 17:35 | 50.90262 | 3.48073 | 28360 ft | 413 kts | 35° |
| 2026-04-23 17:36 | 50.95147 | 3.52814 | 28364 ft | 413 kts | 36° |
| 2026-04-23 17:36 | 51.00039 | 3.57573 | 28365 ft | 413 kts | 36° |
| 2026-04-23 17:37 | 51.04950 | 3.62362 | 28367 ft | 413 kts | 36° |
| 2026-04-23 17:38 | 51.12269 | 3.69523 | 28372 ft | 413 kts | 36° |
| 2026-04-23 17:38 | 51.17172 | 3.74336 | 28373 ft | 413 kts | 36° |
| 2026-04-23 17:39 | 51.21966 | 3.79282 | 28372 ft | 409 kts | 43° |
| 2026-04-23 17:39 | 51.26116 | 3.85434 | 28370 ft | 404 kts | 49° |
| 2026-04-23 17:40 | 51.30038 | 3.91876 | 28375 ft | 404 kts | 50° |
| 2026-04-23 17:40 | 51.33896 | 3.98375 | 28370 ft | 404 kts | 50° |
| 2026-04-23 17:41 | 51.37683 | 4.05016 | 28374 ft | 403 kts | 52° |
| 2026-04-23 17:41 | 51.43238 | 4.15136 | 28366 ft | 403 kts | 52° |
| 2026-04-23 17:42 | 51.48797 | 4.25239 | 28374 ft | 403 kts | 52° |
| 2026-04-23 17:43 | 51.52500 | 4.31964 | 28372 ft | 404 kts | 52° |
| 2026-04-23 17:43 | 51.56228 | 4.38746 | 28374 ft | 404 kts | 52° |
| 2026-04-23 17:44 | 51.59941 | 4.45520 | 28377 ft | 404 kts | 52° |
| 2026-04-23 17:44 | 51.65506 | 4.55711 | 28381 ft | 404 kts | 52° |
| 2026-04-23 17:45 | 51.71077 | 4.65956 | 28391 ft | 404 kts | 52° |
| 2026-04-23 17:46 | 51.76616 | 4.76184 | 28382 ft | 405 kts | 52° |
| 2026-04-23 17:46 | 51.80311 | 4.83080 | 28382 ft | 404 kts | 53° |
| 2026-04-23 17:47 | 51.83828 | 4.90173 | 28387 ft | 403 kts | 55° |
| 2026-04-23 17:48 | 51.88959 | 5.00893 | 28390 ft | 402 kts | 55° |
| 2026-04-23 17:48 | 51.92397 | 5.08060 | 28395 ft | 402 kts | 55° |
| 2026-04-23 17:49 | 51.95820 | 5.15183 | 28395 ft | 403 kts | 54° |
| 2026-04-23 17:49 | 51.99260 | 5.22355 | 28395 ft | 404 kts | 55° |
| 2026-04-23 17:50 | 52.02706 | 5.29557 | 28395 ft | 403 kts | 55° |
| 2026-04-23 17:50 | 52.07861 | 5.40373 | 28393 ft | 403 kts | 54° |
| 2026-04-23 17:51 | 52.11298 | 5.47606 | 28396 ft | 402 kts | 54° |
| 2026-04-23 17:52 | 52.16408 | 5.58408 | 28388 ft | 403 kts | 55° |
| 2026-04-23 17:52 | 52.21525 | 5.69269 | 28379 ft | 404 kts | 55° |
| 2026-04-23 17:53 | 52.26641 | 5.80171 | 28376 ft | 404 kts | 55° |
| 2026-04-23 17:54 | 52.30066 | 5.87497 | 28378 ft | 404 kts | 55° |
| 2026-04-23 17:54 | 52.35166 | 5.98444 | 28378 ft | 403 kts | 55° |
| 2026-04-23 17:55 | 52.40236 | 6.09374 | 28377 ft | 403 kts | 54° |
| 2026-04-23 17:56 | 52.43630 | 6.16708 | 28382 ft | 403 kts | 54° |
| 2026-04-23 17:56 | 52.48697 | 6.27697 | 28376 ft | 403 kts | 54° |
| 2026-04-23 17:57 | 52.52072 | 6.35051 | 28378 ft | 403 kts | 55° |
| 2026-04-23 17:58 | 52.57124 | 6.46104 | 28371 ft | 403 kts | 55° |
| 2026-04-23 17:58 | 52.60492 | 6.53498 | 28376 ft | 403 kts | 54° |
| 2026-04-23 17:59 | 52.63848 | 6.60885 | 28376 ft | 403 kts | 55° |
| 2026-04-23 17:59 | 52.67202 | 6.68292 | 28368 ft | 403 kts | 54° |
| 2026-04-23 18:00 | 52.70547 | 6.75699 | 28370 ft | 403 kts | 54° |
| 2026-04-23 18:00 | 52.73888 | 6.83119 | 28373 ft | 403 kts | 55° |
| 2026-04-23 18:01 | 52.77222 | 6.90549 | 28366 ft | 403 kts | 54° |
| 2026-04-23 18:01 | 52.80541 | 6.97961 | 28362 ft | 403 kts | 54° |
| 2026-04-23 18:02 | 52.83321 | 7.04189 | 28367 ft | 404 kts | 56° |
| 2026-04-23 18:02 | 52.87219 | 7.12945 | 28357 ft | 403 kts | 54° |
| 2026-04-23 18:03 | 52.90515 | 7.20372 | 28356 ft | 402 kts | 54° |
| 2026-04-23 18:03 | 52.93820 | 7.27842 | 28357 ft | 402 kts | 55° |
| 2026-04-23 18:04 | 52.97114 | 7.35311 | 28347 ft | 402 kts | 55° |
| 2026-04-23 18:04 | 53.00412 | 7.42808 | 28347 ft | 402 kts | 55° |
| 2026-04-23 18:05 | 53.03713 | 7.50340 | 28346 ft | 403 kts | 54° |
| 2026-04-23 18:05 | 53.06998 | 7.57852 | 28338 ft | 404 kts | 54° |
| 2026-04-23 18:06 | 53.10302 | 7.65431 | 28337 ft | 404 kts | 55° |
| 2026-04-23 18:06 | 53.13577 | 7.72966 | 28337 ft | 401 kts | 54° |
| 2026-04-23 18:07 | 53.16817 | 7.80443 | 28333 ft | 400 kts | 54° |
| 2026-04-23 18:07 | 53.20082 | 7.88000 | 28334 ft | 400 kts | 54° |
| 2026-04-23 18:07 | 53.21690 | 7.91730 | 28163 ft | 395 kts | 54° |
| 2026-04-23 18:08 | 53.22756 | 7.94208 | 27995 ft | 392 kts | 54° |
| 2026-04-23 18:08 | 53.24859 | 7.99098 | 27642 ft | 392 kts | 54° |
| 2026-04-23 18:08 | 53.26442 | 8.02787 | 27351 ft | 388 kts | 54° |
| 2026-04-23 18:08 | 53.28017 | 8.06463 | 26868 ft | 384 kts | 54° |
| 2026-04-23 18:09 | 53.29558 | 8.10064 | 26306 ft | 383 kts | 54° |
| 2026-04-23 18:09 | 53.31115 | 8.13709 | 25736 ft | 382 kts | 54° |
| 2026-04-23 18:09 | 53.32643 | 8.17290 | 25168 ft | 381 kts | 54° |
| 2026-04-23 18:09 | 53.34175 | 8.20886 | 24600 ft | 381 kts | 54° |
| 2026-04-23 18:10 | 53.35723 | 8.24523 | 24053 ft | 379 kts | 53° |
| 2026-04-23 18:10 | 53.37228 | 8.28070 | 23631 ft | 373 kts | 53° |
| 2026-04-23 18:10 | 53.38729 | 8.31610 | 23221 ft | 366 kts | 53° |
| 2026-04-23 18:10 | 53.40187 | 8.35050 | 22821 ft | 364 kts | 53° |
| 2026-04-23 18:11 | 53.41660 | 8.38529 | 22430 ft | 363 kts | 53° |
| 2026-04-23 18:11 | 53.43114 | 8.41970 | 22045 ft | 361 kts | 52° |
| 2026-04-23 18:11 | 53.44551 | 8.45376 | 21643 ft | 358 kts | 53° |
| 2026-04-23 18:11 | 53.45994 | 8.48806 | 21232 ft | 356 kts | 51° |
| 2026-04-23 18:12 | 53.47402 | 8.52156 | 20825 ft | 351 kts | 52° |
| 2026-04-23 18:12 | 53.48814 | 8.55512 | 20444 ft | 349 kts | 51° |
| 2026-04-23 18:12 | 53.50201 | 8.58814 | 20058 ft | 347 kts | 53° |
| 2026-04-23 18:12 | 53.51584 | 8.62112 | 19678 ft | 345 kts | 52° |
| 2026-04-23 18:13 | 53.52971 | 8.65426 | 19283 ft | 343 kts | 52° |
| 2026-04-23 18:13 | 53.54334 | 8.68687 | 18897 ft | 340 kts | 52° |
| 2026-04-23 18:13 | 53.55677 | 8.71903 | 18505 ft | 338 kts | 52° |
| 2026-04-23 18:13 | 53.57033 | 8.75155 | 18073 ft | 336 kts | 51° |
| 2026-04-23 18:14 | 53.57924 | 8.77292 | 17824 ft | 334 kts | 52° |
| 2026-04-23 18:14 | 53.59691 | 8.81540 | 17322 ft | 332 kts | 51° |
| 2026-04-23 18:14 | 53.61002 | 8.84694 | 16967 ft | 329 kts | 52° |
| 2026-04-23 18:14 | 53.62321 | 8.87874 | 16569 ft | 329 kts | 52° |
| 2026-04-23 18:15 | 53.63622 | 8.91013 | 16194 ft | 327 kts | 52° |
| 2026-04-23 18:15 | 53.64915 | 8.94137 | 15825 ft | 325 kts | 52° |
| 2026-04-23 18:15 | 53.66211 | 8.97272 | 15453 ft | 323 kts | 52° |
| 2026-04-23 18:15 | 53.67485 | 9.00357 | 15080 ft | 321 kts | 52° |
| 2026-04-23 18:16 | 53.68746 | 9.03415 | 14709 ft | 319 kts | 52° |
| 2026-04-23 18:16 | 53.70019 | 9.06507 | 14348 ft | 317 kts | 51° |
| 2026-04-23 18:16 | 53.71265 | 9.09536 | 13944 ft | 314 kts | 51° |
| 2026-04-23 18:17 | 53.73677 | 9.15751 | 13227 ft | 326 kts | 59° |
| 2026-04-23 18:17 | 53.74625 | 9.19284 | 12894 ft | 334 kts | 63° |
| 2026-04-23 18:17 | 53.75512 | 9.22907 | 12564 ft | 335 kts | 64° |
| 2026-04-23 18:17 | 53.76385 | 9.26513 | 12233 ft | 333 kts | 64° |
| 2026-04-23 18:18 | 53.77256 | 9.30139 | 11902 ft | 326 kts | 64° |
| 2026-04-23 18:18 | 53.78083 | 9.33616 | 11597 ft | 315 kts | 64° |
| 2026-04-23 18:18 | 53.78620 | 9.35894 | 11405 ft | 308 kts | 64° |
| 2026-04-23 18:18 | 53.79399 | 9.39234 | 11127 ft | 298 kts | 64° |
| 2026-04-23 18:19 | 53.80139 | 9.42436 | 10853 ft | 289 kts | 64° |
| 2026-04-23 18:19 | 53.81080 | 9.46558 | 10511 ft | 280 kts | 64° |
| 2026-04-23 18:19 | 53.81541 | 9.48599 | 10342 ft | 278 kts | 64° |
| 2026-04-23 18:19 | 53.82234 | 9.51674 | 10267 ft | 277 kts | 64° |
| 2026-04-23 18:20 | 53.82919 | 9.54715 | 10260 ft | 277 kts | 64° |
| 2026-04-23 18:20 | 53.83609 | 9.57771 | 10250 ft | 277 kts | 64° |
| 2026-04-23 18:20 | 53.84289 | 9.60796 | 10260 ft | 277 kts | 64° |
| 2026-04-23 18:20 | 53.84981 | 9.63869 | 10259 ft | 277 kts | 64° |
| 2026-04-23 18:21 | 53.85670 | 9.66933 | 10255 ft | 277 kts | 64° |
| 2026-04-23 18:21 | 53.86348 | 9.69977 | 10254 ft | 278 kts | 64° |
| 2026-04-23 18:21 | 53.87037 | 9.73069 | 10252 ft | 279 kts | 64° |
| 2026-04-23 18:21 | 53.87719 | 9.76123 | 10253 ft | 279 kts | 64° |
| 2026-04-23 18:22 | 53.88271 | 9.79271 | 10248 ft | 285 kts | 79° |
| 2026-04-23 18:22 | 53.88234 | 9.82651 | 10081 ft | 290 kts | 91° |
| 2026-04-23 18:22 | 53.87962 | 9.86107 | 9540 ft | 294 kts | 94° |
| 2026-04-23 18:22 | 53.87657 | 9.89496 | 9155 ft | 290 kts | 94° |
| 2026-04-23 18:23 | 53.87349 | 9.92858 | 8743 ft | 288 kts | 94° |
| 2026-04-23 18:23 | 53.86721 | 9.99523 | 7908 ft | 284 kts | 94° |
| 2026-04-23 18:24 | 53.86086 | 10.06085 | 7146 ft | 281 kts | 94° |
| 2026-04-23 18:24 | 53.85765 | 10.09353 | 6733 ft | 281 kts | 94° |
| 2026-04-23 18:24 | 53.85441 | 10.12590 | 6318 ft | 279 kts | 94° |
| 2026-04-23 18:25 | 53.84795 | 10.19043 | 5481 ft | 275 kts | 94° |
| 2026-04-23 18:25 | 53.84476 | 10.22224 | 5101 ft | 274 kts | 97° |
| 2026-04-23 18:25 | 53.83719 | 10.25174 | 4836 ft | 275 kts | 125° |
| 2026-04-23 18:25 | 53.82353 | 10.27352 | 4648 ft | 268 kts | 141° |
| 2026-04-23 18:26 | 53.80851 | 10.29169 | 4403 ft | 263 kts | 143° |
| 2026-04-23 18:26 | 53.79329 | 10.30784 | 4235 ft | 254 kts | 160° |
| 2026-04-23 18:26 | 53.77636 | 10.30999 | 4017 ft | 240 kts | 201° |
| 2026-04-23 18:26 | 53.76341 | 10.29550 | 3833 ft | 213 kts | 244° |
| 2026-04-23 18:27 | 53.75819 | 10.27381 | 3691 ft | 194 kts | 260° |
| 2026-04-23 18:27 | 53.75386 | 10.25230 | 3492 ft | 191 kts | 257° |
| 2026-04-23 18:27 | 53.74773 | 10.23249 | 3256 ft | 195 kts | 239° |
| 2026-04-23 18:27 | 53.73671 | 10.21686 | 3103 ft | 238 kts | 216° |
| 2026-04-23 18:28 | 53.72149 | 10.20168 | 2863 ft | 254 kts | 216° |
| 2026-04-23 18:28 | 53.70625 | 10.18730 | 2585 ft | 250 kts | 214° |
| 2026-04-23 18:28 | 53.69115 | 10.17364 | 2692 ft | 247 kts | 214° |
| 2026-04-23 18:28 | 53.67566 | 10.15852 | 2838 ft | 272 kts | 220° |
| 2026-04-23 18:29 | 53.66097 | 10.13693 | 3135 ft | 287 kts | 232° |
| 2026-04-23 18:29 | 53.64807 | 10.11040 | 3348 ft | 298 kts | 239° |
| 2026-04-23 18:29 | 53.63660 | 10.08295 | 3259 ft | 279 kts | 242° |
| 2026-04-23 18:29 | 53.62645 | 10.05596 | 3085 ft | 262 kts | 245° |
| 2026-04-23 18:30 | 53.61724 | 10.03065 | 2819 ft | 247 kts | 244° |
| 2026-04-23 18:30 | 53.60831 | 10.00660 | 2417 ft | 237 kts | 245° |
| 2026-04-23 18:30 | 53.59994 | 9.98348 | 2102 ft | 227 kts | 246° |
| 2026-04-23 18:30 | 53.59203 | 9.96183 | 1826 ft | 206 kts | 245° |
| 2026-04-23 18:31 | 53.58467 | 9.94261 | 1545 ft | 188 kts | 244° |
| 2026-04-23 18:31 | 53.57742 | 9.92523 | 1279 ft | 174 kts | 241° |
| 2026-04-23 18:31 | 53.57025 | 9.90967 | 1004 ft | 164 kts | 237° |
| 2026-04-23 18:31 | 53.56320 | 9.89517 | 799 ft | 162 kts | 236° |
| 2026-04-23 18:32 | 53.55629 | 9.88052 | 632 ft | 152 kts | 238° |
| 2026-04-23 18:32 | 53.55016 | 9.86691 | 327 ft | 140 kts | 237° |
| 2026-04-23 18:32 | 53.54422 | 9.85452 | 160 ft | 138 kts | 236° |
| 2026-04-23 18:32 | 53.53819 | 9.84155 | 33 ft | 137 kts | 237° |
| 2026-04-23 18:33 | 53.53311 | 9.83081 | 27 ft | 91 kts | 231° |
| 2026-04-23 18:33 | 53.53041 | 9.82511 | 26 ft | 34 kts | 232° |
| 2026-04-23 18:33 | 53.52934 | 9.82232 | 28 ft | 16 kts | 263° |
| 2026-04-23 18:33 | 53.52890 | 9.82148 | 25 ft | 8 kts | 148° |
| 2026-04-23 18:34 | 53.52918 | 9.82256 | 29 ft | 15 kts | 52° |
| 2026-04-23 18:34 | 53.52993 | 9.82414 | 28 ft | 20 kts | 51° |
| 2026-04-23 18:34 | 53.53085 | 9.82608 | 27 ft | 21 kts | 51° |
| 2026-04-23 18:34 | 53.53177 | 9.82803 | 24 ft | 21 kts | 51° |
| 2026-04-23 18:35 | 53.53266 | 9.82993 | 29 ft | 18 kts | 51° |
| 2026-04-23 18:35 | 53.53335 | 9.83072 | 31 ft | 9 kts | 356° |
| 2026-04-23 18:35 | 53.53391 | 9.83018 | 30 ft | 11 kts | 323° |
| 2026-04-23 18:35 | 53.53456 | 9.82933 | 30 ft | 12 kts | 321° |
| 2026-04-23 18:36 | 53.53522 | 9.82843 | 29 ft | 12 kts | 321° |
| 2026-04-23 18:36 | 53.53572 | 9.82837 | 27 ft | 7 kts | 33° |
| 2026-04-23 18:36 | 53.53598 | 9.82876 | 31 ft | 3 kts | 44° |
| 2026-04-23 18:36 | 53.53604 | 9.82888 | 29 ft | 0 kts | 47° |